Time;durP1;ratioP1;P1;durP2;ratioP2;P2;SDS_P1;SDS_P2;PMS_P1;PMS_P2;Temp;Humidity;BMP_temperature;BMP_pressure;BME280_temperature;BME280_humidity;BME280_pressure;Samples;Min_cycle;Max_cycle;Signal;HPM_P1;HPM_P2
2023/01/26 00:02:14;;;;;;;;;;;;;;;;;;5051559;28;19936;-69
2023/01/26 00:04:40;;;;;;;;;;;;;;;;;;5031355;28;20406;-69
2023/01/26 00:07:06;;;;;;;;;;;;;;;;;;5051994;28;19935;-69
2023/01/26 00:09:32;;;;;;;;;;;;;;;;;;5051381;28;19932;-69
2023/01/26 00:11:57;;;;;;;;;;;;;;;;;;5051189;28;19952;-69
2023/01/26 00:14:23;;;;;;;;;;;;;;;;;;5050376;28;19935;-69
2023/01/26 00:16:53;;;;;;;;;;;;;;;;;;5030798;28;20007;-69
2023/01/26 00:19:19;;;;;;;;;;;;;;;;;;5050713;28;19921;-69
2023/01/26 00:21:45;;;;;;;;;;;;;;;;;;5046545;28;19929;-69
2023/01/26 00:24:10;;;;;;;;;;;;;;;;;;5035008;28;19928;-69
2023/01/26 00:26:36;;;;;;;;;;;;;;;;;;5052276;28;19921;-69
2023/01/26 00:29:02;;;;;;;;;;;;;;;;;;5051647;28;19925;-69
2023/01/26 00:31:28;;;;;;;;;;;;;;;;;;5029235;28;19933;-69
2023/01/26 00:33:54;;;;;;;;;;;;;;;;;;5018827;28;20337;-69
2023/01/26 00:36:20;;;;;;;;;;;;;;;;;;5034358;28;19932;-69
2023/01/26 00:38:46;;;;;;;;;;;;;;;;;;5052673;28;19921;-69
2023/01/26 00:42:05;;;;;;;;;;;;;;;;;;5024616;28;20382;-69
2023/01/26 00:43:58;;;;;;;;;;;;;;;;;;5051552;28;19974;-69
2023/01/26 00:46:24;;;;;;;;;;;;;;;;;;5031793;28;19928;-69
2023/01/26 00:48:49;;;;;;;;;;;;;;;;;;5053210;28;19936;-69
2023/01/26 00:51:15;;;;;;;;;;;;;;;;;;5032999;28;19920;-69
2023/01/26 00:53:41;;;;;;;;;;;;;;;;;;5035533;28;20386;-69
2023/01/26 00:56:07;;;;;;;;;;;;;;;;;;5033795;28;19986;-69
2023/01/26 00:58:33;;;;;;;;;;;;;;;;;;5017641;28;19921;-69
2023/01/26 01:00:59;;;;;;;;;;;;;;;;;;5015502;28;19928;-69
2023/01/26 01:03:25;;;;;;;;;;;;;;;;;;5033481;28;19925;-69
2023/01/26 01:05:51;;;;;;;;;;;;;;;;;;5034181;28;19935;-69
2023/01/26 01:08:16;;;;;;;;;;;;;;;;;;5033408;28;20015;-69
2023/01/26 01:10:42;;;;;;;;;;;;;;;;;;5033833;28;20354;-69
2023/01/26 01:13:08;;;;;;;;;;;;;;;;;;5051533;28;19925;-69
2023/01/26 01:15:34;;;;;;;;;;;;;;;;;;5014273;28;19951;-69
2023/01/26 01:18:00;;;;;;;;;;;;;;;;;;5028736;28;19933;-69
2023/01/26 01:20:26;;;;;;;;;;;;;;;;;;5022563;28;19965;-69
2023/01/26 01:22:52;;;;;;;;;;;;;;;;;;5010629;28;19939;-69
2023/01/26 01:25:18;;;;;;;;;;;;;;;;;;5008111;28;19921;-69
2023/01/26 01:27:44;;;;;;;;;;;;;;;;;;5009853;28;20279;-69
2023/01/26 01:30:09;;;;;;;;;;;;;;;;;;5022665;28;19929;-69
2023/01/26 01:32:35;;;;;;;;;;;;;;;;;;4993283;28;19976;-69
2023/01/26 01:35:01;;;;;;;;;;;;;;;;;;5000612;28;19922;-69
2023/01/26 01:37:27;;;;;;;;;;;;;;;;;;5008597;28;19925;-69
2023/01/26 01:39:53;;;;;;;;;;;;;;;;;;5011195;28;19982;-69
2023/01/26 01:42:19;;;;;;;;;;;;;;;;;;5011496;28;19928;-69
2023/01/26 01:44:45;;;;;;;;;;;;;;;;;;5011738;28;19930;-69
2023/01/26 01:47:11;;;;;;;;;;;;;;;;;;5007098;28;20421;-69
2023/01/26 01:49:37;;;;;;;;;;;;;;;;;;5010267;28;19926;-69
2023/01/26 01:52:02;;;;;;;;;;;;;;;;;;5011755;28;20371;-69
2023/01/26 01:54:29;;;;;;;;;;;;;;;;;;5010217;28;19921;-69
2023/01/26 01:56:54;;;;;;;;;;;;;;;;;;5010800;28;20300;-69
2023/01/26 01:59:21;;;;;;;;;;;;;;;;;;5024031;28;19921;-69
2023/01/26 02:01:47;;;;;;;;;;;;;;;;;;5010650;28;19944;-69
2023/01/26 02:04:13;;;;;;;;;;;;;;;;;;5010904;28;20383;-69
2023/01/26 02:06:38;;;;;;;;;;;;;;;;;;5002989;28;20001;-69
2023/01/26 02:09:04;;;;;;;;;;;;;;;;;;4995098;28;19933;-69
2023/01/26 02:11:30;;;;;;;;;;;;;;;;;;5010031;28;19921;-69
2023/01/26 02:13:57;;;;;;;;;;;;;;;;;;5011362;28;19925;-69
2023/01/26 02:16:22;;;;;;;;;;;;;;;;;;5010896;28;20007;-68
2023/01/26 02:18:48;;;;;;;;;;;;;;;;;;5009793;28;20374;-69
2023/01/26 02:21:14;;;;;;;;;;;;;;;;;;5030363;28;20007;-69
2023/01/26 02:23:40;;;;;;;;;;;;;;;;;;5029633;28;19932;-69
2023/01/26 02:26:06;;;;;;;;;;;;;;;;;;5033823;28;19925;-69
2023/01/26 02:28:32;;;;;;;;;;;;;;;;;;5033028;28;19921;-68
2023/01/26 02:30:58;;;;;;;;;;;;;;;;;;5034242;28;19928;-68
2023/01/26 02:33:24;;;;;;;;;;;;;;;;;;5033660;28;20367;-68
2023/01/26 02:35:49;;;;;;;;;;;;;;;;;;5025179;28;19922;-69
2023/01/26 02:38:15;;;;;;;;;;;;;;;;;;5031092;28;19925;-68
2023/01/26 02:40:41;;;;;;;;;;;;;;;;;;5035632;28;19925;-68
2023/01/26 02:43:07;;;;;;;;;;;;;;;;;;5033471;28;19925;-68
2023/01/26 02:45:33;;;;;;;;;;;;;;;;;;5029402;28;19968;-69
2023/01/26 02:48:03;;;;;;;;;;;;;;;;;;5034840;28;19921;-68
2023/01/26 02:50:29;;;;;;;;;;;;;;;;;;5033901;28;19929;-68
2023/01/26 02:52:55;;;;;;;;;;;;;;;;;;5036027;28;19924;-69
2023/01/26 02:55:21;;;;;;;;;;;;;;;;;;5035468;28;19947;-69
2023/01/26 02:57:47;;;;;;;;;;;;;;;;;;5034927;28;19921;-69
2023/01/26 03:00:13;;;;;;;;;;;;;;;;;;5034745;28;19978;-68
2023/01/26 03:02:38;;;;;;;;;;;;;;;;;;5031694;28;20008;-68
2023/01/26 03:05:04;;;;;;;;;;;;;;;;;;5031776;28;19932;-68
2023/01/26 03:07:30;;;;;;;;;;;;;;;;;;5028847;28;20279;-68
2023/01/26 03:09:57;;;;;;;;;;;;;;;;;;5032226;28;19952;-69
2023/01/26 03:12:23;;;;;;;;;;;;;;;;;;5029147;28;19921;-68
2023/01/26 03:15:33;;;;;;;;;;;;;;;;;;5020908;28;19941;-68
2023/01/26 03:17:35;;;;;;;;;;;;;;;;;;5040619;28;20413;-69
2023/01/26 03:27:25;;;;;;;;;;;;;;;;;;5031955;28;19920;-68
2023/01/26 03:28:22;;;;;;;;;;;;;;;;;;5051099;28;19921;-68
2023/01/26 03:30:48;;;;;;;;;;;;;;;;;;5035326;28;19970;-68
2023/01/26 03:33:14;;;;;;;;;;;;;;;;;;5042944;28;20390;-68
2023/01/26 03:35:40;;;;;;;;;;;;;;;;;;5034433;28;19969;-68
2023/01/26 03:38:06;;;;;;;;;;;;;;;;;;5031682;28;19927;-68
2023/01/26 03:56:59;;;;;;;;;;;;;;;;;;5045628;28;19972;-67
2023/01/26 03:59:37;;;;;;;;;;;;;;;;;;5050935;28;19965;-67
2023/01/26 04:10:16;;;;;;;;;;;;;;;;;;5044486;28;20382;-67
2023/01/26 04:12:42;;;;;;;;;;;;;;;;;;5051999;28;19927;-68
2023/01/26 04:23:22;;;;;;;;;;;;;;;;;;5046929;28;20053;-67
2023/01/26 04:25:48;;;;;;;;;;;;;;;;;;5033701;28;19921;-68
2023/01/26 04:28:14;;;;;;;;;;;;;;;;;;5051324;28;19920;-68
2023/01/26 04:30:40;;;;;;;;;;;;;;;;;;5032233;28;20286;-68
2023/01/26 04:33:06;;;;;;;;;;;;;;;;;;5033172;28;19924;-68
2023/01/26 04:35:32;;;;;;;;;;;;;;;;;;5045743;28;19921;-67
2023/01/26 04:37:58;;;;;;;;;;;;;;;;;;5026495;28;20390;-67
2023/01/26 04:40:23;;;;;;;;;;;;;;;;;;5048216;28;20012;-67
2023/01/26 04:42:49;;;;;;;;;;;;;;;;;;5024791;28;20285;-67
2023/01/26 04:45:15;;;;;;;;;;;;;;;;;;5030882;28;19925;-68
2023/01/26 04:47:41;;;;;;;;;;;;;;;;;;5049521;28;19921;-68
2023/01/26 04:50:07;;;;;;;;;;;;;;;;;;5046808;28;19956;-68
2023/01/26 04:52:33;;;;;;;;;;;;;;;;;;5043760;28;19924;-68
2023/01/26 04:54:59;;;;;;;;;;;;;;;;;;5046517;28;20011;-68
2023/01/26 04:57:25;;;;;;;;;;;;;;;;;;5045432;28;19929;-67
2023/01/26 04:59:51;;;;;;;;;;;;;;;;;;5051450;28;19947;-68
2023/01/26 05:02:16;;;;;;;;;;;;;;;;;;5031914;28;20015;-67
2023/01/26 05:04:42;;;;;;;;;;;;;;;;;;5051225;28;20377;-67
2023/01/26 05:07:08;;;;;;;;;;;;;;;;;;5035007;28;20355;-68
2023/01/26 05:09:34;;;;;;;;;;;;;;;;;;5034719;28;19995;-68
2023/01/26 05:12:32;;;;;;;;;;;;;;;;;;5051615;28;19931;-68
2023/01/26 05:14:46;;;;;;;;;;;;;;;;;;5052565;28;19974;-68
2023/01/26 05:17:12;;;;;;;;;;;;;;;;;;5052143;28;19932;-68
2023/01/26 05:19:38;;;;;;;;;;;;;;;;;;5052987;28;19921;-68
2023/01/26 05:22:04;;;;;;;;;;;;;;;;;;5033211;28;20244;-68
2023/01/26 05:24:29;;;;;;;;;;;;;;;;;;5026508;28;19971;-68
2023/01/26 05:27:19;;;;;;;;;;;;;;;;;;5051185;28;19920;-68
2023/01/26 05:29:41;;;;;;;;;;;;;;;;;;5052148;28;19963;-68
2023/01/26 05:32:07;;;;;;;;;;;;;;;;;;5052152;28;19960;-68
2023/01/26 05:34:33;;;;;;;;;;;;;;;;;;5052250;28;19943;-68
2023/01/26 05:36:59;;;;;;;;;;;;;;;;;;5034293;28;20007;-68
2023/01/26 05:39:25;;;;;;;;;;;;;;;;;;5050952;28;20011;-68
2023/01/26 05:41:51;;;;;;;;;;;;;;;;;;5051089;28;20282;-68
2023/01/26 05:44:17;;;;;;;;;;;;;;;;;;4997739;28;19921;-68
2023/01/26 05:46:42;;;;;;;;;;;;;;;;;;5036627;28;19944;-68
2023/01/26 05:49:08;;;;;;;;;;;;;;;;;;5027491;28;19933;-68
2023/01/26 05:51:34;;;;;;;;;;;;;;;;;;5049978;28;19925;-68
2023/01/26 05:54:00;;;;;;;;;;;;;;;;;;5048496;28;20337;-68
2023/01/26 05:56:26;;;;;;;;;;;;;;;;;;5047416;28;19921;-68
2023/01/26 05:58:52;;;;;;;;;;;;;;;;;;5049202;28;19944;-68
2023/01/26 06:01:18;;;;;;;;;;;;;;;;;;5032667;28;19924;-68
2023/01/26 06:03:44;;;;;;;;;;;;;;;;;;5049592;28;19928;-68
2023/01/26 06:06:09;;;;;;;;;;;;;;;;;;5050496;28;20452;-68
2023/01/26 06:08:35;;;;;;;;;;;;;;;;;;5032354;28;19928;-68
2023/01/26 06:11:01;;;;;;;;;;;;;;;;;;5033781;28;20301;-68
2023/01/26 06:13:27;;;;;;;;;;;;;;;;;;5031904;28;19925;-68
2023/01/26 06:15:53;;;;;;;;;;;;;;;;;;5034502;28;19928;-68
2023/01/26 06:18:19;;;;;;;;;;;;;;;;;;5019746;28;19924;-68
2023/01/26 06:20:45;;;;;;;;;;;;;;;;;;5032841;28;19932;-68
2023/01/26 06:23:11;;;;;;;;;;;;;;;;;;5048674;28;19928;-68
2023/01/26 06:25:40;;;;;;;;;;;;;;;;;;5029595;28;19929;-67
2023/01/26 06:28:06;;;;;;;;;;;;;;;;;;5046235;28;19921;-67
2023/01/26 06:30:33;;;;;;;;;;;;;;;;;;5031710;28;19936;-67
2023/01/26 06:32:59;;;;;;;;;;;;;;;;;;5026018;23;20011;-68
2023/01/26 06:35:25;;;;;;;;;;;;;;;;;;5027943;28;20036;-67
2023/01/26 06:37:51;;;;;;;;;;;;;;;;;;5010845;28;20016;-67
2023/01/26 06:40:17;;;;;;;;;;;;;;;;;;5025112;28;20012;-66
2023/01/26 06:42:43;;;;;;;;;;;;;;;;;;5014121;28;20028;-67
2023/01/26 06:45:09;;;;;;;;;;;;;;;;;;5026546;28;20019;-67
2023/01/26 06:47:35;;;;;;;;;;;;;;;;;;5027223;28;19944;-67
2023/01/26 06:50:01;;;;;;;;;;;;;;;;;;5030874;28;19925;-67
2023/01/26 06:52:27;;;;;;;;;;;;;;;;;;5019890;28;19932;-67
2023/01/26 06:54:53;;;;;;;;;;;;;;;;;;5008534;28;20387;-67
2023/01/26 06:57:19;;;;;;;;;;;;;;;;;;5018639;28;20273;-67
2023/01/26 06:59:45;;;;;;;;;;;;;;;;;;5016875;28;19928;-67
2023/01/26 07:02:10;;;;;;;;;;;;;;;;;;5025447;28;19994;-67
2023/01/26 07:04:36;;;;;;;;;;;;;;;;;;5007224;28;19929;-67
2023/01/26 07:07:02;;;;;;;;;;;;;;;;;;4996775;28;20024;-67
2023/01/26 07:09:29;;;;;;;;;;;;;;;;;;5012356;28;20430;-67
2023/01/26 07:11:55;;;;;;;;;;;;;;;;;;5030444;28;20397;-67
2023/01/26 07:14:21;;;;;;;;;;;;;;;;;;5030412;28;19936;-67
2023/01/26 07:16:47;;;;;;;;;;;;;;;;;;5029161;28;19925;-67
2023/01/26 07:19:13;;;;;;;;;;;;;;;;;;5030697;28;20416;-67
2023/01/26 07:21:39;;;;;;;;;;;;;;;;;;5008830;28;19965;-67
2023/01/26 07:24:06;;;;;;;;;;;;;;;;;;5026623;28;19925;-67
2023/01/26 07:26:32;;;;;;;;;;;;;;;;;;5012820;28;19925;-67
2023/01/26 07:28:58;;;;;;;;;;;;;;;;;;5015187;28;19933;-67
2023/01/26 07:31:24;;;;;;;;;;;;;;;;;;5033209;28;20361;-67
2023/01/26 07:33:50;;;;;;;;;;;;;;;;;;5031830;28;19936;-68
2023/01/26 07:36:16;;;;;;;;;;;;;;;;;;5031730;28;19929;-68
2023/01/26 07:38:42;;;;;;;;;;;;;;;;;;5014095;28;19967;-67
2023/01/26 07:41:08;;;;;;;;;;;;;;;;;;5032984;28;19921;-67
2023/01/26 07:43:34;;;;;;;;;;;;;;;;;;5013329;28;19925;-67
2023/01/26 07:45:59;;;;;;;;;;;;;;;;;;5015519;28;20004;-67
2023/01/26 07:48:28;;;;;;;;;;;;;;;;;;5032254;28;19921;-67
2023/01/26 07:50:54;;;;;;;;;;;;;;;;;;5014146;28;20004;-67
2023/01/26 07:53:21;;;;;;;;;;;;;;;;;;5033407;28;20004;-67
2023/01/26 07:55:48;;;;;;;;;;;;;;;;;;5015742;28;19956;-67
2023/01/26 07:58:14;;;;;;;;;;;;;;;;;;5033234;28;19925;-68
2023/01/26 08:00:40;;;;;;;;;;;;;;;;;;5029827;28;19967;-68
2023/01/26 08:03:06;;;;;;;;;;;;;;;;;;5015595;28;19921;-67
2023/01/26 08:05:31;;;;;;;;;;;;;;;;;;5014199;28;19971;-68
2023/01/26 08:07:58;;;;;;;;;;;;;;;;;;5033548;28;19960;-68
2023/01/26 08:10:24;;;;;;;;;;;;;;;;;;5032119;28;19929;-67
2023/01/26 08:12:50;;;;;;;;;;;;;;;;;;5032779;28;19970;-67
2023/01/26 08:15:16;;;;;;;;;;;;;;;;;;5015214;28;19929;-68
2023/01/26 08:17:41;;;;;;;;;;;;;;;;;;5028566;28;20344;-68
2023/01/26 08:20:07;;;;;;;;;;;;;;;;;;5012413;28;20417;-67
2023/01/26 08:22:33;;;;;;;;;;;;;;;;;;5011858;28;19921;-67
2023/01/26 08:24:59;;;;;;;;;;;;;;;;;;5032739;28;19925;-68
2023/01/26 08:27:25;;;;;;;;;;;;;;;;;;5023045;28;20015;-68
2023/01/26 08:29:51;;;;;;;;;;;;;;;;;;5002765;28;20616;-68
2023/01/26 08:32:17;;;;;;;;;;;;;;;;;;5002494;28;19929;-67
2023/01/26 08:34:43;;;;;;;;;;;;;;;;;;5004174;28;20260;-67
2023/01/26 08:37:09;;;;;;;;;;;;;;;;;;4994563;28;19933;-67
2023/01/26 08:39:35;;;;;;;;;;;;;;;;;;4997675;28;19933;-67
2023/01/26 08:42:01;;;;;;;;;;;;;;;;;;5003700;28;20387;-68
2023/01/26 08:44:26;;;;;;;;;;;;;;;;;;5012105;28;19983;-68
2023/01/26 08:46:52;;;;;;;;;;;;;;;;;;5010142;28;20366;-68
2023/01/26 08:49:18;;;;;;;;;;;;;;;;;;5003814;28;19933;-67
2023/01/26 08:51:44;;;;;;;;;;;;;;;;;;4989246;28;19926;-67
2023/01/26 08:54:10;;;;;;;;;;;;;;;;;;4995563;28;20011;-68
2023/01/26 08:56:36;;;;;;;;;;;;;;;;;;5008481;28;19929;-68
2023/01/26 08:59:02;;;;;;;;;;;;;;;;;;5011608;28;19921;-68
2023/01/26 09:01:28;;;;;;;;;;;;;;;;;;5011649;28;20449;-68
2023/01/26 09:03:55;;;;;;;;;;;;;;;;;;5006457;28;20339;-68
2023/01/26 09:06:21;;;;;;;;;;;;;;;;;;4999966;28;19928;-68
2023/01/26 09:08:46;;;;;;;;;;;;;;;;;;5011171;28;19926;-68
2023/01/26 09:11:12;;;;;;;;;;;;;;;;;;5013003;28;20441;-68
2023/01/26 09:13:38;;;;;;;;;;;;;;;;;;5011214;28;19921;-68
2023/01/26 09:16:04;;;;;;;;;;;;;;;;;;5011262;28;20366;-68
2023/01/26 09:18:30;;;;;;;;;;;;;;;;;;5010655;28;19979;-68
2023/01/26 09:20:56;;;;;;;;;;;;;;;;;;5008995;28;19951;-68
2023/01/26 09:23:22;;;;;;;;;;;;;;;;;;5011626;28;20402;-68
2023/01/26 09:25:48;;;;;;;;;;;;;;;;;;5006399;28;19969;-68
2023/01/26 09:28:14;;;;;;;;;;;;;;;;;;4996403;28;19921;-68
2023/01/26 09:30:40;;;;;;;;;;;;;;;;;;5009669;28;20279;-68
2023/01/26 09:33:06;;;;;;;;;;;;;;;;;;5021922;28;19936;-68
2023/01/26 09:35:32;;;;;;;;;;;;;;;;;;5002802;28;20407;-68
2023/01/26 09:37:58;;;;;;;;;;;;;;;;;;5013518;28;20691;-68
2023/01/26 09:40:23;;;;;;;;;;;;;;;;;;5028190;28;19979;-68
2023/01/26 09:42:49;;;;;;;;;;;;;;;;;;5014129;28;19928;-68
2023/01/26 09:45:16;;;;;;;;;;;;;;;;;;5013178;28;20332;-68
2023/01/26 09:47:42;;;;;;;;;;;;;;;;;;5028389;28;20012;-68
2023/01/26 09:50:07;;;;;;;;;;;;;;;;;;5012538;28;20003;-69
2023/01/26 09:52:33;;;;;;;;;;;;;;;;;;5013195;28;19921;-69
2023/01/26 09:54:59;;;;;;;;;;;;;;;;;;5014098;28;19928;-69
2023/01/26 09:57:25;;;;;;;;;;;;;;;;;;5013910;28;20248;-69
2023/01/26 09:59:51;;;;;;;;;;;;;;;;;;5032105;28;19932;-69
2023/01/26 10:02:17;;;;;;;;;;;;;;;;;;5009172;28;19971;-69
2023/01/26 10:04:43;;;;;;;;;;;;;;;;;;5010399;28;19925;-67
2023/01/26 10:07:09;;;;;;;;;;;;;;;;;;5022037;28;19931;-68
2023/01/26 10:09:35;;;;;;;;;;;;;;;;;;5013560;28;20495;-68
2023/01/26 10:12:00;;;;;;;;;;;;;;;;;;5031113;28;19921;-68
2023/01/26 10:14:29;;;;;;;;;;;;;;;;;;5001105;28;19932;-68
2023/01/26 10:16:55;;;;;;;;;;;;;;;;;;5024890;28;19921;-68
2023/01/26 10:19:21;;;;;;;;;;;;;;;;;;4997588;28;19925;-68
2023/01/26 10:21:47;;;;;;;;;;;;;;;;;;5031578;28;20274;-68
2023/01/26 10:24:13;;;;;;;;;;;;;;;;;;5013729;28;19968;-68
2023/01/26 10:26:38;;;;;;;;;;;;;;;;;;5030058;28;19957;-68
2023/01/26 10:29:04;;;;;;;;;;;;;;;;;;5019629;28;19935;-68
2023/01/26 10:31:31;;;;;;;;;;;;;;;;;;5001231;28;19921;-68
2023/01/26 10:33:57;;;;;;;;;;;;;;;;;;4997450;28;19930;-68
2023/01/26 10:36:23;;;;;;;;;;;;;;;;;;4994144;28;19975;-68
2023/01/26 10:38:49;;;;;;;;;;;;;;;;;;5017920;28;19925;-68
2023/01/26 10:41:18;;;;;;;;;;;;;;;;;;4993843;28;19921;-68
2023/01/26 10:43:44;;;;;;;;;;;;;;;;;;5013142;28;19922;-68
2023/01/26 10:46:09;;;;;;;;;;;;;;;;;;5014282;28;20012;-68
2023/01/26 10:48:35;;;;;;;;;;;;;;;;;;5016183;28;19929;-68
2023/01/26 10:51:01;;;;;;;;;;;;;;;;;;5008358;28;19925;-68
2023/01/26 10:53:28;;;;;;;;;;;;;;;;;;5016706;28;20318;-68
2023/01/26 10:55:54;;;;;;;;;;;;;;;;;;5033677;28;19925;-68
2023/01/26 10:58:20;;;;;;;;;;;;;;;;;;5008057;28;19929;-68
2023/01/26 11:00:46;;;;;;;;;;;;;;;;;;4997436;28;19929;-68
2023/01/26 11:03:12;;;;;;;;;;;;;;;;;;4997559;28;19964;-68
2023/01/26 11:05:38;;;;;;;;;;;;;;;;;;5023040;28;19975;-68
2023/01/26 11:08:05;;;;;;;;;;;;;;;;;;5013979;28;19921;-68
2023/01/26 11:10:31;;;;;;;;;;;;;;;;;;5025918;28;19925;-68
2023/01/26 11:12:57;;;;;;;;;;;;;;;;;;5015628;28;19947;-68
2023/01/26 11:15:23;;;;;;;;;;;;;;;;;;5017189;28;19921;-68
2023/01/26 11:17:49;;;;;;;;;;;;;;;;;;5016672;28;19932;-68
2023/01/26 11:20:15;;;;;;;;;;;;;;;;;;5026775;28;19922;-68
2023/01/26 11:22:41;;;;;;;;;;;;;;;;;;4997006;28;19928;-69
2023/01/26 11:25:07;;;;;;;;;;;;;;;;;;5016492;28;19929;-68
2023/01/26 11:27:32;;;;;;;;;;;;;;;;;;4996305;28;20390;-68
2023/01/26 11:30:00;;;;;;;;;;;;;;;;;;5025903;28;21214;-68
2023/01/26 11:32:26;;;;;;;;;;;;;;;;;;5012438;28;20386;-69
2023/01/26 11:34:52;;;;;;;;;;;;;;;;;;5031863;28;19929;-68
2023/01/26 11:37:18;;;;;;;;;;;;;;;;;;5015708;28;19921;-68
2023/01/26 11:39:44;;;;;;;;;;;;;;;;;;5014594;28;20668;-68
2023/01/26 11:42:10;;;;;;;;;;;;;;;;;;5013675;28;19925;-68
2023/01/26 11:44:36;;;;;;;;;;;;;;;;;;5033181;28;19921;-68
2023/01/26 11:47:01;;;;;;;;;;;;;;;;;;5021603;28;19925;-69
2023/01/26 11:49:27;;;;;;;;;;;;;;;;;;5007759;28;29705;-69
2023/01/26 11:51:53;;;;;;;;;;;;;;;;;;4986498;28;20375;-69
2023/01/26 11:54:19;;;;;;;;;;;;;;;;;;5011756;28;19921;-69
2023/01/26 11:56:45;;;;;;;;;;;;;;;;;;5020308;28;20543;-69
2023/01/26 11:59:11;;;;;;;;;;;;;;;;;;5017777;28;20759;-69
2023/01/26 12:01:37;;;;;;;;;;;;;;;;;;5006987;28;19959;-69
2023/01/26 12:04:03;;;;;;;;;;;;;;;;;;5009247;28;20329;-69
2023/01/26 12:06:29;;;;;;;;;;;;;;;;;;5019128;28;19921;-67
2023/01/26 12:08:54;;;;;;;;;;;;;;;;;;5015534;28;19929;-68
2023/01/26 12:11:26;;;;;;;;;;;;;;;;;;5010199;28;20452;-67
2023/01/26 12:13:52;;;;;;;;;;;;;;;;;;5018830;28;20023;-67
2023/01/26 12:16:18;;;;;;;;;;;;;;;;;;5022397;28;20036;-67
2023/01/26 12:18:44;;;;;;;;;;;;;;;;;;5008149;28;20000;-67
2023/01/26 12:21:10;;;;;;;;;;;;;;;;;;5026562;28;19929;-67
2023/01/26 12:23:37;;;;;;;;;;;;;;;;;;5027984;28;19929;-67
2023/01/26 12:26:03;;;;;;;;;;;;;;;;;;5016917;28;20425;-67
2023/01/26 12:28:28;;;;;;;;;;;;;;;;;;5013142;28;19925;-68
2023/01/26 12:30:54;;;;;;;;;;;;;;;;;;5027615;28;19937;-67
2023/01/26 12:33:20;;;;;;;;;;;;;;;;;;5025212;28;20004;-67
2023/01/26 12:35:46;;;;;;;;;;;;;;;;;;5020917;28;19968;-67
2023/01/26 12:38:12;;;;;;;;;;;;;;;;;;5024101;28;19925;-68
2023/01/26 12:40:38;;;;;;;;;;;;;;;;;;5009987;28;19967;-67
2023/01/26 12:43:04;;;;;;;;;;;;;;;;;;5023370;28;19921;-67
2023/01/26 12:45:30;;;;;;;;;;;;;;;;;;5006236;28;20398;-67
2023/01/26 12:47:56;;;;;;;;;;;;;;;;;;5027850;28;19932;-67
2023/01/26 12:50:21;;;;;;;;;;;;;;;;;;5029073;28;19929;-67
2023/01/26 12:52:47;;;;;;;;;;;;;;;;;;5017971;28;19925;-68
2023/01/26 12:55:13;;;;;;;;;;;;;;;;;;5013614;28;19922;-68
2023/01/26 12:57:39;;;;;;;;;;;;;;;;;;5040395;28;19931;-67
2023/01/26 13:00:07;;;;;;;;;;;;;;;;;;5011871;28;19972;-67
2023/01/26 13:02:34;;;;;;;;;;;;;;;;;;5007123;28;19932;-67
2023/01/26 13:05:00;;;;;;;;;;;;;;;;;;4993992;28;20489;-67
2023/01/26 13:07:26;;;;;;;;;;;;;;;;;;5031542;28;19929;-67
2023/01/26 13:09:52;;;;;;;;;;;;;;;;;;5007081;28;19936;-67
2023/01/26 13:12:17;;;;;;;;;;;;;;;;;;5027202;28;19922;-67
2023/01/26 13:14:44;;;;;;;;;;;;;;;;;;5016596;28;19922;-67
2023/01/26 13:17:09;;;;;;;;;;;;;;;;;;5023361;28;19925;-67
2023/01/26 13:19:36;;;;;;;;;;;;;;;;;;5016578;28;20051;-67
2023/01/26 13:22:02;;;;;;;;;;;;;;;;;;5026157;28;20007;-67
2023/01/26 13:24:27;;;;;;;;;;;;;;;;;;5023118;28;20673;-67
2023/01/26 13:26:53;;;;;;;;;;;;;;;;;;5003557;28;19925;-67
2023/01/26 13:29:19;;;;;;;;;;;;;;;;;;5021972;28;19983;-67
2023/01/26 13:31:45;;;;;;;;;;;;;;;;;;5017877;28;19921;-68
2023/01/26 13:34:11;;;;;;;;;;;;;;;;;;5007136;28;19979;-67
2023/01/26 13:36:37;;;;;;;;;;;;;;;;;;5030534;28;20015;-67
2023/01/26 13:39:03;;;;;;;;;;;;;;;;;;5028989;28;19963;-67
2023/01/26 13:41:29;;;;;;;;;;;;;;;;;;5032082;28;20379;-67
2023/01/26 13:43:54;;;;;;;;;;;;;;;;;;5027428;28;19921;-68
2023/01/26 13:46:20;;;;;;;;;;;;;;;;;;5008611;28;19991;-68
2023/01/26 13:48:46;;;;;;;;;;;;;;;;;;5031806;28;19956;-67
2023/01/26 13:51:12;;;;;;;;;;;;;;;;;;5029512;28;19947;-67
2023/01/26 13:53:40;;;;;;;;;;;;;;;;;;5011771;28;20442;-67
2023/01/26 13:56:06;;;;;;;;;;;;;;;;;;5030106;28;19930;-67
2023/01/26 13:58:32;;;;;;;;;;;;;;;;;;5013170;28;20288;-68
2023/01/26 14:00:58;;;;;;;;;;;;;;;;;;5011093;28;19929;-68
2023/01/26 14:03:24;;;;;;;;;;;;;;;;;;5031983;23;20219;-67
2023/01/26 14:05:50;;;;;;;;;;;;;;;;;;5033667;28;20023;-67
2023/01/26 14:08:16;;;;;;;;;;;;;;;;;;5051963;28;19925;-68
2023/01/26 14:10:41;;;;;;;;;;;;;;;;;;5051492;28;19931;-67
2023/01/26 14:13:07;;;;;;;;;;;;;;;;;;5034211;28;19960;-67
2023/01/26 14:15:33;;;;;;;;;;;;;;;;;;5032033;28;19927;-67
2023/01/26 14:17:59;;;;;;;;;;;;;;;;;;5047820;28;19921;-67
2023/01/26 14:20:25;;;;;;;;;;;;;;;;;;5051832;28;19921;-67
2023/01/26 14:22:51;;;;;;;;;;;;;;;;;;5033189;28;20036;-67
2023/01/26 14:25:17;;;;;;;;;;;;;;;;;;5048560;28;19929;-67
2023/01/26 14:27:43;;;;;;;;;;;;;;;;;;5045315;28;19924;-67
2023/01/26 14:30:11;;;;;;;;;;;;;;;;;;5016244;28;19932;-67
2023/01/26 14:32:36;;;;;;;;;;;;;;;;;;5053861;28;20358;-67
2023/01/26 14:35:02;;;;;;;;;;;;;;;;;;5039491;28;19960;-67
2023/01/26 14:37:28;;;;;;;;;;;;;;;;;;5047799;28;19928;-67
2023/01/26 14:39:54;;;;;;;;;;;;;;;;;;5049977;28;19921;-67
2023/01/26 14:42:20;;;;;;;;;;;;;;;;;;5022889;28;19924;-67
2023/01/26 14:44:46;;;;;;;;;;;;;;;;;;5048573;28;20011;-66
2023/01/26 14:47:12;;;;;;;;;;;;;;;;;;5033388;28;20431;-67
2023/01/26 14:49:41;;;;;;;;;;;;;;;;;;5044316;28;19932;-67
2023/01/26 14:52:07;;;;;;;;;;;;;;;;;;5055218;28;20313;-67
2023/01/26 14:54:35;;;;;;;;;;;;;;;;;;5049858;28;20066;-67
2023/01/26 14:57:01;;;;;;;;;;;;;;;;;;5054155;28;19932;-67
2023/01/26 14:59:27;;;;;;;;;;;;;;;;;;5044424;28;19929;-67
2023/01/26 15:01:53;;;;;;;;;;;;;;;;;;5042415;28;20302;-67
2023/01/26 15:04:18;;;;;;;;;;;;;;;;;;5033342;28;19968;-67
2023/01/26 15:06:44;;;;;;;;;;;;;;;;;;5027128;28;19946;-66
2023/01/26 15:09:10;;;;;;;;;;;;;;;;;;5035959;28;19928;-66
2023/01/26 15:14:21;;;;;;;;;;;;;;;;;;5034368;28;19924;-66
2023/01/26 15:16:47;;;;;;;;;;;;;;;;;;5049199;28;21507;-66
2023/01/26 15:19:13;;;;;;;;;;;;;;;;;;5047048;28;19928;-67
2023/01/26 15:21:38;;;;;;;;;;;;;;;;;;5034048;28;19947;-67
2023/01/26 15:24:04;;;;;;;;;;;;;;;;;;5051634;28;20267;-67
2023/01/26 15:26:30;;;;;;;;;;;;;;;;;;5034876;28;19921;-67
2023/01/26 15:28:56;;;;;;;;;;;;;;;;;;5054041;28;19920;-67
2023/01/26 15:31:22;;;;;;;;;;;;;;;;;;5053151;28;20313;-67
2023/01/26 15:33:51;;;;;;;;;;;;;;;;;;5051769;28;20002;-67
2023/01/26 15:36:17;;;;;;;;;;;;;;;;;;5042593;28;20256;-66
2023/01/26 15:38:43;;;;;;;;;;;;;;;;;;5054009;28;19927;-66
2023/01/26 15:41:09;;;;;;;;;;;;;;;;;;5052020;28;19921;-66
2023/01/26 15:43:34;;;;;;;;;;;;;;;;;;5044183;28;20371;-66
2023/01/26 15:46:00;;;;;;;;;;;;;;;;;;5053373;28;19943;-66
2023/01/26 15:48:30;;;;;;;;;;;;;;;;;;5044530;28;19928;-66
2023/01/26 15:50:56;;;;;;;;;;;;;;;;;;5040497;28;19933;-66
2023/01/26 15:53:22;;;;;;;;;;;;;;;;;;5041029;28;19924;-66
2023/01/26 15:55:51;;;;;;;;;;;;;;;;;;5033505;28;19937;-66
2023/01/26 15:58:17;;;;;;;;;;;;;;;;;;5032207;28;20208;-66
2023/01/26 16:00:43;;;;;;;;;;;;;;;;;;5043336;28;19931;-66
2023/01/26 16:03:09;;;;;;;;;;;;;;;;;;5048427;28;20538;-66
2023/01/26 16:05:35;;;;;;;;;;;;;;;;;;5050260;28;19979;-66
2023/01/26 16:08:00;;;;;;;;;;;;;;;;;;5038523;28;19925;-66
2023/01/26 16:10:26;;;;;;;;;;;;;;;;;;5046981;28;20293;-66
2023/01/26 16:12:52;;;;;;;;;;;;;;;;;;5032210;28;19972;-66
2023/01/26 16:15:18;;;;;;;;;;;;;;;;;;5058788;28;19925;-66
2023/01/26 16:17:44;;;;;;;;;;;;;;;;;;5051555;28;19974;-66
2023/01/26 16:20:10;;;;;;;;;;;;;;;;;;5045624;28;19924;-66
2023/01/26 16:22:36;;;;;;;;;;;;;;;;;;5026847;28;19928;-67
2023/01/26 16:25:02;;;;;;;;;;;;;;;;;;5044812;28;19921;-67
2023/01/26 16:27:28;;;;;;;;;;;;;;;;;;5049459;28;19932;-67
2023/01/26 16:29:54;;;;;;;;;;;;;;;;;;5037111;28;19933;-67
2023/01/26 16:32:19;;;;;;;;;;;;;;;;;;5052612;28;20263;-67
2023/01/26 16:34:45;;;;;;;;;;;;;;;;;;5046167;28;20024;-67
2023/01/26 16:37:11;;;;;;;;;;;;;;;;;;5043406;28;19920;-66
2023/01/26 16:39:37;;;;;;;;;;;;;;;;;;5046009;28;19933;-66
2023/01/26 16:42:03;;;;;;;;;;;;;;;;;;5048384;28;20617;-66
2023/01/26 16:44:29;;;;;;;;;;;;;;;;;;5051506;28;19920;-69
2023/01/26 16:46:55;;;;;;;;;;;;;;;;;;5044195;28;20418;-66
2023/01/26 16:49:21;;;;;;;;;;;;;;;;;;5045540;28;20397;-66
2023/01/26 16:51:47;;;;;;;;;;;;;;;;;;5037360;28;19929;-66
2023/01/26 16:54:13;;;;;;;;;;;;;;;;;;5063777;28;20317;-66
2023/01/26 16:56:39;;;;;;;;;;;;;;;;;;5049457;28;19921;-67
2023/01/26 16:59:05;;;;;;;;;;;;;;;;;;5044442;28;19925;-67
2023/01/26 17:01:31;;;;;;;;;;;;;;;;;;5047330;28;19947;-67
2023/01/26 17:03:57;;;;;;;;;;;;;;;;;;5049198;28;19921;-67
2023/01/26 17:06:23;;;;;;;;;;;;;;;;;;5038610;28;19936;-67
2023/01/26 17:08:49;;;;;;;;;;;;;;;;;;5021662;28;19967;-67
2023/01/26 17:11:15;;;;;;;;;;;;;;;;;;5046060;28;19931;-67
2023/01/26 17:13:41;;;;;;;;;;;;;;;;;;5047966;28;19921;-67
2023/01/26 17:16:07;;;;;;;;;;;;;;;;;;5042046;28;19940;-67
2023/01/26 17:18:33;;;;;;;;;;;;;;;;;;5042579;28;19927;-67
2023/01/26 17:20:59;;;;;;;;;;;;;;;;;;5047558;28;19994;-67